createdAt,value
2022-11-05T00:02:07.145Z,87.35
2022-11-05T00:04:28.183Z,87.59
2022-11-05T00:06:46.372Z,87.92
2022-11-05T00:09:01.887Z,88.13
2022-11-05T00:11:00.067Z,88.14
2022-11-05T00:13:18.074Z,87.94
2022-11-05T00:15:34.020Z,88.45
2022-11-05T00:17:33.578Z,88.41
2022-11-05T00:19:31.841Z,88.41
2022-11-05T00:21:47.268Z,87.93
2022-11-05T00:24:03.053Z,87.96
2022-11-05T00:26:03.421Z,87.79
2022-11-05T00:28:03.294Z,88.11
2022-11-05T00:30:01.587Z,88.32
2022-11-05T00:31:59.839Z,88.42
2022-11-05T00:33:59.480Z,88.54
2022-11-05T00:35:57.728Z,89.05
2022-11-05T00:37:55.837Z,88.23
2022-11-05T00:39:54.019Z,88.19
2022-11-05T00:42:12.356Z,88.37
2022-11-05T00:44:27.869Z,88.15
2022-11-05T00:46:26.135Z,88.25
2022-11-05T00:48:41.628Z,88.47
2022-11-05T00:50:41.476Z,88.79
2022-11-05T00:52:59.711Z,88.48
2022-11-05T00:54:58.113Z,88.69
2022-11-05T00:56:59.408Z,88.77
2022-11-05T00:59:01.669Z,88.20
2022-11-05T01:01:01.714Z,88.63
2022-11-05T01:03:01.938Z,88.96
2022-11-05T01:05:00.042Z,88.70
2022-11-05T01:06:59.647Z,88.74
2022-11-05T01:08:57.816Z,89.37
2022-11-05T01:10:57.599Z,89.53
2022-11-05T01:12:55.898Z,89.84
2022-11-05T01:14:54.044Z,89.98
2022-11-05T01:16:52.262Z,90.30
2022-11-05T01:18:50.622Z,90.53
2022-11-05T01:20:49.218Z,90.49
2022-11-05T01:22:48.896Z,90.45
2022-11-05T01:24:47.022Z,90.37
2022-11-05T01:26:45.337Z,90.60
2022-11-05T01:28:43.810Z,90.36
2022-11-05T01:30:42.044Z,90.10
2022-11-05T01:32:40.500Z,89.79
2022-11-05T01:34:38.647Z,90.18
2022-11-05T01:36:36.891Z,90.06
2022-11-05T01:38:36.429Z,90.63
2022-11-05T01:40:34.600Z,90.95
2022-11-05T01:42:33.879Z,91.26
2022-11-05T01:44:54.245Z,90.82
2022-11-05T01:46:52.613Z,90.82
2022-11-05T01:48:58.628Z,90.84
2022-11-05T01:51:04.246Z,90.63
2022-11-05T01:53:09.921Z,90.50
2022-11-05T01:55:12.020Z,90.76
2022-11-05T01:57:12.410Z,91.03
2022-11-05T01:59:15.898Z,91.02
2022-11-05T02:01:14.066Z,91.64
2022-11-05T02:03:14.837Z,92.28
2022-11-05T02:05:15.644Z,92.49
2022-11-05T02:07:14.353Z,92.35
2022-11-05T02:09:17.996Z,92.75
2022-11-05T02:11:20.082Z,92.27
2022-11-05T02:13:18.382Z,92.30
2022-11-05T02:15:23.265Z,92.64
2022-11-05T02:17:28.715Z,93.03
2022-11-05T02:20:03.350Z,93.76
2022-11-05T02:22:48.048Z,94.29
2022-11-05T02:25:09.659Z,94.23
2022-11-05T02:27:21.993Z,94.61
2022-11-05T02:30:03.910Z,94.00
2022-11-05T02:32:13.433Z,93.92
2022-11-05T02:34:21.773Z,93.86
2022-11-05T02:36:29.774Z,94.26
2022-11-05T02:38:41.237Z,94.80
2022-11-05T02:40:51.786Z,94.96
2022-11-05T02:42:59.828Z,95.07
2022-11-05T02:45:07.352Z,94.89
2022-11-05T02:47:18.168Z,94.74
2022-11-05T02:49:31.534Z,94.86
2022-11-05T02:51:36.389Z,95.34
2022-11-05T02:53:42.824Z,95.00
2022-11-05T02:55:46.394Z,95.65
2022-11-05T02:57:47.781Z,95.86
2022-11-05T02:59:45.902Z,96.06
2022-11-05T03:01:47.055Z,96.80
2022-11-05T03:03:48.991Z,96.82
2022-11-05T03:05:57.461Z,96.89
2022-11-05T03:08:02.670Z,96.95
2022-11-05T03:10:16.035Z,97.38
2022-11-05T03:12:23.776Z,97.13
2022-11-05T03:14:30.049Z,96.90
2022-11-05T03:16:36.858Z,97.15
2022-11-05T03:18:43.463Z,97.45
2022-11-05T03:20:51.498Z,97.20
2022-11-05T03:22:56.027Z,97.43
2022-11-05T03:24:58.826Z,97.77
2022-11-05T03:27:00.691Z,97.85
2022-11-05T03:29:03.257Z,97.87
2022-11-05T03:31:04.886Z,97.81
2022-11-05T03:33:08.284Z,98.18
2022-11-05T03:35:13.333Z,97.82
2022-11-05T03:37:13.371Z,97.94
2022-11-05T03:39:18.357Z,97.83
2022-11-05T03:41:18.058Z,97.53
2022-11-05T03:43:18.730Z,97.82
2022-11-05T03:45:21.580Z,97.23
2022-11-05T03:47:24.088Z,97.24
2022-11-05T03:49:26.434Z,97.27
2022-11-05T03:51:34.575Z,97.26
2022-11-05T03:53:41.839Z,97.35
2022-11-05T03:55:52.567Z,97.18
2022-11-05T03:57:55.147Z,96.89
2022-11-05T03:59:53.548Z,97.16
2022-11-05T04:01:52.006Z,97.13
2022-11-05T04:03:50.388Z,97.17
2022-11-05T04:06:09.443Z,97.22
2022-11-05T04:08:25.218Z,97.22
2022-11-05T04:10:42.221Z,97.58
2022-11-05T04:12:54.323Z,97.73
2022-11-05T04:14:52.395Z,97.70
2022-11-05T04:17:09.583Z,97.79
2022-11-05T04:19:07.873Z,98.01
2022-11-05T04:21:24.258Z,97.62
2022-11-05T04:23:39.755Z,97.07
2022-11-05T04:25:39.293Z,96.76
2022-11-05T04:27:38.028Z,97.11
2022-11-05T04:29:52.611Z,97.34
2022-11-05T04:31:51.336Z,97.73
2022-11-05T04:33:49.474Z,97.69
2022-11-05T04:35:49.628Z,97.55
2022-11-05T04:37:46.903Z,97.53
2022-11-05T04:39:45.122Z,97.13
2022-11-05T04:41:45.481Z,97.29
2022-11-05T04:43:43.851Z,97.40
2022-11-05T04:45:42.585Z,97.56
2022-11-05T04:47:40.723Z,98.20
2022-11-05T04:49:39.045Z,98.17
2022-11-05T04:51:37.255Z,98.10
2022-11-05T04:53:35.576Z,98.12
2022-11-05T04:55:33.781Z,97.87
2022-11-05T04:57:33.250Z,98.11
2022-11-05T04:59:31.459Z,97.01
2022-11-05T05:01:29.747Z,96.20
2022-11-05T05:03:27.980Z,96.12
2022-11-05T05:05:26.285Z,96.47
2022-11-05T05:07:24.844Z,96.49
2022-11-05T05:09:23.160Z,97.00
2022-11-05T05:11:22.896Z,97.01
2022-11-05T05:13:22.447Z,97.50
2022-11-05T05:15:21.519Z,97.02
2022-11-05T05:17:19.776Z,97.17
2022-11-05T05:19:17.967Z,97.08
2022-11-05T05:21:33.539Z,97.29
2022-11-05T05:23:31.844Z,96.37
2022-11-05T05:25:30.211Z,96.06
2022-11-05T05:27:30.496Z,96.54
2022-11-05T05:29:30.079Z,95.88
2022-11-05T05:31:34.532Z,95.24
2022-11-05T05:33:33.223Z,94.82
2022-11-05T05:35:31.718Z,94.04
2022-11-05T05:37:30.567Z,92.95
2022-11-05T05:39:28.753Z,91.18
2022-11-05T05:41:26.922Z,90.56
2022-11-05T05:43:25.131Z,88.73
2022-11-05T05:45:25.123Z,86.66
2022-11-05T05:47:23.310Z,84.52
2022-11-05T05:49:21.676Z,83.14
2022-11-05T05:51:20.531Z,82.27
2022-11-05T05:53:18.802Z,81.28
2022-11-05T05:55:17.016Z,81.25
2022-11-05T05:57:15.256Z,80.60
2022-11-05T05:59:14.029Z,80.35
2022-11-05T06:01:18.866Z,79.46
2022-11-05T06:03:18.050Z,79.28
2022-11-05T06:05:16.469Z,78.75
2022-11-05T06:07:39.648Z,78.49
2022-11-05T06:10:12.141Z,77.60
2022-11-05T06:12:41.643Z,77.38
2022-11-05T06:14:39.836Z,76.85
2022-11-05T06:16:47.223Z,77.05
2022-11-05T06:18:45.454Z,76.85
2022-11-05T06:20:43.678Z,75.85
2022-11-05T06:22:42.106Z,74.24
2022-11-05T06:24:40.278Z,73.77
2022-11-05T06:26:42.921Z,74.04
2022-11-05T06:28:42.301Z,73.47
2022-11-05T06:30:40.506Z,72.90
2022-11-05T06:32:40.186Z,73.15
2022-11-05T06:34:38.394Z,73.99
2022-11-05T06:36:36.616Z,73.99
2022-11-05T06:38:36.834Z,73.73
2022-11-05T06:40:35.123Z,74.19
2022-11-05T06:42:33.399Z,74.01
2022-11-05T06:44:31.741Z,74.02
2022-11-05T06:46:29.988Z,74.79
2022-11-05T06:48:30.030Z,75.15
2022-11-05T06:50:29.448Z,74.24
2022-11-05T06:52:31.374Z,73.28
2022-11-05T06:54:29.859Z,72.71
2022-11-05T06:56:36.897Z,72.08
2022-11-05T06:58:38.325Z,71.97
2022-11-05T07:00:36.690Z,71.56
2022-11-05T07:02:36.432Z,71.49
2022-11-05T07:04:36.314Z,72.74
2022-11-05T07:06:44.852Z,72.40
2022-11-05T07:08:43.205Z,71.19
2022-11-05T07:10:44.811Z,70.02
2022-11-05T07:12:45.588Z,69.94
2022-11-05T07:14:46.893Z,69.21
2022-11-05T07:16:45.134Z,69.02
2022-11-05T07:18:43.371Z,68.43
2022-11-05T07:20:43.252Z,67.95
2022-11-05T07:22:41.661Z,67.80
2022-11-05T07:24:39.946Z,68.05
2022-11-05T07:26:38.201Z,67.72
2022-11-05T07:29:29.694Z,67.76
2022-11-05T07:31:31.216Z,66.54
2022-11-05T07:33:35.234Z,66.29
2022-11-05T07:35:34.668Z,65.32
2022-11-05T07:37:34.378Z,62.34
2022-11-05T07:39:32.542Z,57.50
2022-11-05T07:41:30.703Z,52.07
2022-11-05T07:43:28.961Z,47.41
2022-11-05T07:45:29.108Z,44.83
2022-11-05T07:47:27.349Z,43.07
2022-11-05T07:49:26.276Z,42.15
2022-11-05T07:51:24.454Z,41.12
2022-11-05T07:53:24.072Z,40.06
2022-11-05T07:55:22.425Z,40.19
2022-11-05T07:57:20.701Z,42.11
2022-11-05T07:59:19.152Z,41.88
2022-11-05T08:01:17.738Z,42.94
2022-11-05T08:03:18.599Z,42.26
2022-11-05T08:05:23.661Z,41.50
2022-11-05T08:07:22.047Z,40.69
2022-11-05T08:09:21.619Z,39.29
2022-11-05T08:11:20.269Z,37.68
2022-11-05T08:13:19.426Z,38.17
2022-11-05T08:15:17.839Z,41.52
2022-11-05T08:17:19.193Z,43.33
2022-11-05T08:19:17.375Z,44.13
2022-11-05T08:21:15.608Z,43.49
2022-11-05T08:23:14.646Z,41.82
2022-11-05T08:25:15.000Z,40.02
2022-11-05T08:28:03.319Z,39.79
2022-11-05T08:30:01.469Z,40.28
2022-11-05T08:31:59.728Z,38.20
2022-11-05T08:34:02.271Z,37.24
2022-11-05T08:36:05.170Z,38.74
2022-11-05T08:38:09.149Z,38.97
2022-11-05T08:40:08.767Z,39.23
2022-11-05T08:42:08.560Z,40.88
2022-11-05T08:44:11.610Z,41.94
2022-11-05T08:46:12.356Z,42.49
2022-11-05T08:48:15.935Z,41.06
2022-11-05T08:50:14.160Z,42.21
2022-11-05T08:52:12.381Z,42.58
2022-11-05T08:54:10.754Z,43.38
2022-11-05T08:56:09.662Z,44.33
2022-11-05T08:58:18.094Z,46.09
2022-11-05T09:00:16.865Z,46.94
2022-11-05T09:02:15.312Z,48.15
2022-11-05T09:04:13.770Z,48.49
2022-11-05T09:06:12.058Z,48.67
2022-11-05T09:08:13.411Z,49.84
2022-11-05T09:10:12.152Z,50.21
2022-11-05T09:12:12.731Z,51.21
2022-11-05T09:14:12.761Z,52.11
2022-11-05T09:16:19.290Z,52.64
2022-11-05T09:18:18.647Z,52.98
2022-11-05T09:20:16.939Z,52.61
2022-11-05T09:22:15.911Z,52.92
2022-11-05T09:27:44.380Z,51.02
2022-11-05T09:32:02.090Z,46.88
2022-11-05T09:34:18.818Z,47.01
2022-11-05T09:36:21.116Z,46.43
2022-11-05T09:38:22.638Z,48.14
2022-11-05T09:40:21.089Z,48.86
2022-11-05T09:45:54.245Z,50.17
2022-11-05T09:47:55.104Z,50.03
2022-11-05T09:49:55.931Z,48.93
2022-11-05T09:51:56.207Z,45.80
2022-11-05T09:53:54.807Z,44.58
2022-11-05T09:55:56.256Z,44.17
2022-11-05T09:58:00.210Z,45.70
2022-11-05T10:00:02.733Z,46.16
2022-11-05T10:02:14.388Z,46.54
2022-11-05T10:04:18.874Z,45.79
2022-11-05T10:06:21.557Z,44.71
2022-11-05T10:08:24.436Z,45.12
2022-11-05T10:10:36.434Z,43.69
2022-11-05T10:12:43.341Z,42.36
2022-11-05T10:14:46.860Z,42.50
2022-11-05T10:16:52.809Z,42.26
2022-11-05T10:18:55.447Z,43.18
2022-11-05T10:20:53.768Z,44.16
2022-11-05T10:22:57.206Z,44.44
2022-11-05T10:24:56.561Z,44.98
2022-11-05T10:26:56.649Z,45.79
2022-11-05T10:28:55.543Z,45.98
2022-11-05T10:30:58.847Z,45.86
2022-11-05T10:33:01.070Z,46.28
2022-11-05T10:35:02.854Z,47.24
2022-11-05T10:37:01.402Z,46.75
2022-11-05T10:39:03.190Z,46.83
2022-11-05T10:41:14.057Z,46.77
2022-11-05T10:43:18.579Z,45.78
2022-11-05T10:45:30.086Z,44.89
2022-11-05T10:47:41.403Z,45.31
2022-11-05T10:49:50.758Z,45.26
2022-11-05T10:51:57.271Z,44.76
2022-11-05T10:54:01.889Z,44.79
2022-11-05T10:56:00.678Z,44.45
2022-11-05T10:58:10.861Z,44.42
2022-11-05T11:00:21.566Z,44.20
2022-11-05T11:02:24.908Z,44.43
2022-11-05T11:04:26.019Z,44.25
2022-11-05T11:06:27.404Z,43.70
2022-11-05T11:08:27.474Z,43.63
2022-11-05T11:10:27.181Z,43.33
2022-11-05T11:12:28.690Z,43.83
2022-11-05T11:14:27.720Z,44.11
2022-11-05T11:16:27.979Z,43.93
2022-11-05T11:18:31.532Z,44.30
2022-11-05T11:20:34.561Z,45.00
2022-11-05T11:22:32.929Z,45.62
2022-11-05T11:24:38.783Z,45.81
2022-11-05T11:26:39.464Z,45.61
2022-11-05T11:28:41.124Z,46.14
2022-11-05T11:30:39.459Z,46.33
2022-11-05T11:32:40.541Z,45.79
2022-11-05T11:34:40.876Z,45.69
2022-11-05T11:36:44.690Z,46.42
2022-11-05T11:38:44.178Z,46.79
2022-11-05T11:40:43.966Z,46.96
2022-11-05T11:42:46.584Z,46.73
2022-11-05T11:44:46.804Z,46.31
2022-11-05T11:46:49.273Z,45.96
2022-11-05T11:48:49.675Z,45.97
2022-11-05T11:50:49.027Z,45.47
2022-11-05T11:52:47.297Z,44.70
2022-11-05T11:54:45.710Z,44.57
2022-11-05T11:56:46.848Z,45.28
2022-11-05T11:58:47.756Z,45.34
2022-11-05T12:00:52.523Z,45.38
2022-11-05T12:03:16.034Z,45.54
2022-11-05T12:05:27.425Z,46.12
2022-11-05T12:07:38.018Z,46.23
2022-11-05T12:10:03.162Z,46.50
2022-11-05T12:12:08.854Z,46.68
2022-11-05T12:14:19.755Z,46.57
2022-11-05T12:16:27.758Z,46.83
2022-11-05T12:18:36.339Z,46.65
2022-11-05T12:20:58.316Z,46.88
2022-11-05T12:23:14.467Z,47.22
2022-11-05T12:25:22.727Z,46.79
2022-11-05T12:27:37.945Z,47.09
2022-11-05T12:29:45.545Z,47.31
2022-11-05T12:31:58.117Z,48.02
2022-11-05T12:34:09.391Z,46.79
2022-11-05T12:36:28.652Z,46.42
2022-11-05T12:38:50.008Z,46.14
2022-11-05T12:41:07.053Z,46.27
2022-11-05T12:43:19.522Z,46.12
2022-11-05T12:45:30.274Z,46.18
2022-11-05T12:47:43.005Z,46.21
2022-11-05T12:49:53.094Z,45.92
2022-11-05T12:52:05.852Z,46.41
2022-11-05T12:54:28.698Z,47.02
2022-11-05T12:56:34.582Z,47.17
2022-11-05T12:58:38.331Z,47.53
2022-11-05T13:00:39.264Z,47.98
2022-11-05T13:02:46.428Z,47.90
2022-11-05T13:04:51.326Z,48.45
2022-11-05T13:06:54.282Z,48.69
2022-11-05T13:09:00.862Z,48.74
2022-11-05T13:11:02.964Z,48.60
2022-11-05T13:13:09.111Z,48.40
2022-11-05T13:15:21.405Z,48.65
2022-11-05T13:17:23.176Z,48.29
2022-11-05T13:19:25.246Z,48.53
2022-11-05T13:21:26.437Z,48.98
2022-11-05T13:23:32.919Z,49.18
2022-11-05T13:25:34.363Z,49.57
2022-11-05T13:27:46.150Z,50.02
2022-11-05T13:29:50.159Z,49.79
2022-11-05T13:31:55.635Z,49.87
2022-11-05T13:33:55.612Z,49.91
2022-11-05T13:36:16.224Z,49.70
2022-11-05T13:38:38.348Z,49.94
2022-11-05T13:41:02.448Z,50.92
2022-11-05T13:43:18.590Z,51.23
2022-11-05T13:45:46.305Z,51.38
2022-11-05T13:48:10.962Z,51.23
2022-11-05T13:50:34.723Z,51.36
2022-11-05T13:52:50.557Z,51.32
2022-11-05T13:55:03.530Z,51.57
2022-11-05T13:57:18.988Z,51.83
2022-11-05T13:59:48.106Z,52.04
2022-11-05T14:01:51.135Z,51.97
2022-11-05T14:03:53.771Z,52.17
2022-11-05T14:05:57.386Z,52.18
2022-11-05T14:07:56.859Z,52.41
2022-11-05T14:09:58.418Z,52.53
2022-11-05T14:12:00.280Z,52.57
2022-11-05T14:14:01.104Z,52.54
2022-11-05T14:16:05.221Z,52.68
2022-11-05T14:18:05.402Z,53.03
2022-11-05T14:20:47.737Z,53.56
2022-11-05T14:22:45.887Z,53.83
2022-11-05T14:24:45.908Z,53.85
2022-11-05T14:26:44.066Z,53.78
2022-11-05T14:28:45.462Z,53.67
2022-11-05T14:30:46.334Z,54.18
2022-11-05T14:32:50.157Z,54.24
2022-11-05T14:34:54.768Z,54.59
2022-11-05T14:37:24.141Z,54.67
2022-11-05T14:39:26.504Z,54.83
2022-11-05T14:41:24.854Z,55.42
2022-11-05T14:43:26.881Z,55.22
2022-11-05T14:45:30.309Z,56.14
2022-11-05T14:47:31.898Z,56.38
2022-11-05T14:49:33.494Z,56.29
2022-11-05T14:51:35.417Z,56.57
2022-11-05T14:53:39.003Z,56.93
2022-11-05T14:55:40.421Z,56.63
2022-11-05T14:58:21.026Z,57.25
2022-11-05T15:00:48.043Z,57.37
2022-11-05T15:02:58.162Z,58.13
2022-11-05T15:05:29.701Z,58.61
2022-11-05T15:07:36.093Z,59.07
2022-11-05T15:09:37.851Z,59.42
2022-11-05T15:11:40.129Z,59.79
2022-11-05T15:13:55.280Z,60.21
2022-11-05T15:15:54.064Z,60.52
2022-11-05T15:18:02.402Z,60.80
2022-11-05T15:20:13.074Z,61.36
2022-11-05T15:22:23.396Z,62.06
2022-11-05T15:24:23.025Z,63.00
2022-11-05T15:26:29.166Z,63.81
2022-11-05T15:28:34.802Z,63.69
2022-11-05T15:30:33.709Z,63.21
2022-11-05T15:32:37.417Z,63.09
2022-11-05T15:34:36.885Z,63.18
2022-11-05T15:36:35.390Z,63.43
2022-11-05T15:38:35.756Z,63.58
2022-11-05T15:40:34.423Z,63.54
2022-11-05T15:42:34.277Z,63.91
2022-11-05T15:44:35.128Z,64.29
2022-11-05T15:46:33.390Z,64.64
2022-11-05T15:48:35.556Z,64.60
2022-11-05T15:50:33.825Z,64.61
2022-11-05T15:52:36.520Z,64.61
2022-11-05T15:54:35.097Z,64.62
2022-11-05T15:56:37.657Z,64.55
2022-11-05T15:58:41.042Z,64.89
2022-11-05T16:00:39.548Z,64.97
2022-11-05T16:02:42.564Z,65.26
2022-11-05T16:04:53.643Z,65.48
2022-11-05T16:06:55.359Z,65.72
2022-11-05T16:08:53.737Z,65.96
2022-11-05T16:10:54.717Z,66.26
2022-11-05T16:12:53.318Z,66.19
2022-11-05T16:15:00.506Z,66.20
2022-11-05T16:16:58.844Z,66.34
2022-11-05T16:18:56.960Z,66.51
2022-11-05T16:21:07.003Z,66.73
2022-11-05T16:23:07.149Z,66.74
2022-11-05T16:25:31.446Z,66.71
2022-11-05T16:27:29.578Z,67.19
2022-11-05T16:29:31.038Z,67.30
2022-11-05T16:31:33.853Z,67.32
2022-11-05T16:33:34.813Z,67.19
2022-11-05T16:35:33.365Z,66.88
2022-11-05T16:37:37.756Z,67.02
2022-11-05T16:39:36.102Z,66.87
2022-11-05T16:41:43.291Z,66.81
2022-11-05T16:43:41.560Z,66.75
2022-11-05T16:45:41.554Z,66.83
2022-11-05T16:47:41.176Z,67.01
2022-11-05T16:49:39.791Z,67.18
2022-11-05T16:51:37.923Z,67.37
2022-11-05T16:53:36.440Z,67.32
2022-11-05T16:55:37.523Z,67.28
2022-11-05T16:57:35.872Z,67.23
2022-11-05T16:59:34.891Z,67.11
2022-11-05T17:01:34.409Z,66.77
2022-11-05T17:03:34.092Z,66.61
2022-11-05T17:05:32.449Z,66.56
2022-11-05T17:07:30.759Z,66.53
2022-11-05T17:09:31.522Z,66.67
2022-11-05T17:11:29.810Z,66.73
2022-11-05T17:13:28.509Z,66.73
2022-11-05T17:15:29.330Z,66.91
2022-11-05T17:17:29.094Z,66.63
2022-11-05T17:19:28.934Z,66.80
2022-11-05T17:21:28.897Z,66.67
2022-11-05T17:23:28.819Z,66.29
2022-11-05T17:25:27.783Z,66.09
2022-11-05T17:27:26.220Z,66.15
2022-11-05T17:29:24.640Z,66.06
2022-11-05T17:31:23.180Z,65.96
2022-11-05T17:33:22.754Z,65.87
2022-11-05T17:35:22.972Z,65.93
2022-11-05T17:37:21.264Z,65.64
2022-11-05T17:39:19.416Z,65.64
2022-11-05T17:41:19.906Z,65.75
2022-11-05T17:43:18.076Z,65.76
2022-11-05T17:45:16.576Z,65.68
2022-11-05T17:47:14.851Z,65.43
2022-11-05T17:49:13.013Z,65.32
2022-11-05T17:51:15.079Z,65.47
2022-11-05T17:53:14.231Z,65.44
2022-11-05T17:55:17.692Z,65.74
2022-11-05T17:57:16.352Z,65.97
2022-11-05T17:59:14.692Z,66.25
2022-11-05T18:01:26.464Z,66.02
2022-11-05T18:03:24.883Z,66.23
2022-11-05T18:05:24.291Z,66.40
2022-11-05T18:07:24.216Z,66.53
2022-11-05T18:09:22.683Z,66.55
2022-11-05T18:11:21.294Z,66.79
2022-11-05T18:13:19.566Z,66.46
2022-11-05T18:15:18.715Z,66.86
2022-11-05T18:17:16.913Z,66.93
2022-11-05T18:19:15.229Z,67.60
2022-11-05T18:21:13.592Z,67.85
2022-11-05T18:23:14.350Z,68.37
2022-11-05T18:25:13.605Z,68.79
2022-11-05T18:27:11.983Z,68.89
2022-11-05T18:29:10.342Z,68.52
2022-11-05T18:31:17.877Z,68.79
2022-11-05T18:33:16.833Z,68.87
2022-11-05T18:35:15.554Z,67.24
2022-11-05T18:37:13.794Z,71.06
2022-11-05T18:39:14.313Z,68.51
2022-11-05T18:41:12.495Z,70.43
2022-11-05T18:43:11.178Z,69.34
2022-11-05T18:45:11.905Z,66.43
2022-11-05T18:47:10.362Z,65.32
2022-11-05T18:49:11.302Z,65.14
2022-11-05T18:51:10.217Z,64.89
2022-11-05T18:53:09.330Z,65.61
2022-11-05T18:55:10.917Z,65.52
2022-11-05T18:57:09.801Z,65.60
2022-11-05T18:59:35.217Z,65.80
2022-11-05T19:01:28.851Z,66.83
2022-11-05T19:03:27.239Z,66.08
2022-11-05T19:05:29.902Z,66.33
2022-11-05T19:07:28.762Z,66.77
2022-11-05T19:09:27.001Z,67.40
2022-11-05T19:11:27.703Z,68.36
2022-11-05T19:13:26.443Z,69.05
2022-11-05T19:15:24.721Z,70.18
2022-11-05T19:17:23.071Z,71.39
2022-11-05T19:19:21.651Z,71.49
2022-11-05T19:21:21.880Z,71.70
2022-11-05T19:23:20.381Z,71.82
2022-11-05T19:25:18.735Z,72.64
2022-11-05T19:27:18.711Z,73.29
2022-11-05T19:29:17.015Z,73.25
2022-11-05T19:31:17.525Z,73.76
2022-11-05T19:33:15.824Z,74.70
2022-11-05T19:35:14.101Z,74.27
2022-11-05T19:37:12.453Z,74.33
2022-11-05T19:39:13.210Z,74.11
2022-11-05T19:41:14.818Z,74.48
2022-11-05T19:43:14.735Z,74.99
2022-11-05T19:47:31.366Z,75.18
2022-11-05T19:49:29.913Z,73.78
2022-11-05T19:51:32.554Z,73.56
2022-11-05T19:53:30.847Z,72.96
2022-11-05T19:55:29.364Z,73.61
2022-11-05T19:57:27.851Z,73.77
2022-11-05T19:59:27.746Z,73.85
2022-11-05T20:01:27.439Z,74.29
2022-11-05T20:03:26.200Z,73.94
2022-11-05T20:05:24.715Z,74.46
2022-11-05T20:07:23.503Z,74.29
2022-11-05T20:09:23.261Z,73.69
2022-11-05T20:11:22.069Z,74.06
2022-11-05T20:13:20.380Z,74.36
2022-11-05T20:15:20.544Z,74.34
2022-11-05T20:17:20.359Z,74.28
2022-11-05T20:19:21.909Z,74.23
2022-11-05T20:21:20.703Z,75.26
2022-11-05T20:23:19.270Z,75.45
2022-11-05T20:25:17.727Z,75.27
2022-11-05T20:27:16.062Z,75.54
2022-11-05T20:29:14.256Z,75.38
2022-11-05T20:31:15.774Z,75.73
2022-11-05T20:33:14.199Z,75.96
2022-11-05T20:35:12.881Z,75.78
2022-11-05T20:37:11.283Z,75.71
2022-11-05T20:39:09.604Z,75.85
2022-11-05T20:41:09.355Z,75.54
2022-11-05T20:43:07.565Z,75.73
2022-11-05T20:45:07.113Z,74.46
2022-11-05T20:47:06.824Z,74.41
2022-11-05T20:49:05.303Z,74.98
2022-11-05T20:51:07.328Z,75.24
2022-11-05T20:53:05.703Z,75.69
2022-11-05T20:55:05.321Z,74.85
2022-11-05T20:57:04.142Z,74.85
2022-11-05T20:59:03.093Z,75.31
2022-11-05T21:01:01.293Z,75.69
2022-11-05T21:03:00.972Z,76.02
2022-11-05T21:04:59.204Z,76.61
2022-11-05T21:06:57.510Z,76.07
2022-11-05T21:08:55.687Z,75.49
2022-11-05T21:10:54.063Z,75.72
2022-11-05T21:12:52.300Z,75.46
2022-11-05T21:14:51.174Z,75.62
2022-11-05T21:16:49.619Z,75.64
2022-11-05T21:18:49.485Z,75.68
2022-11-05T21:20:48.158Z,75.88
2022-11-05T21:22:46.305Z,76.63
2022-11-05T21:24:44.763Z,77.14
2022-11-05T21:26:43.017Z,77.44
2022-11-05T21:28:42.451Z,77.23
2022-11-05T21:30:45.136Z,77.34
2022-11-05T21:32:43.537Z,77.60
2022-11-05T21:34:43.101Z,77.65
2022-11-05T21:36:41.748Z,77.33
2022-11-05T21:38:40.827Z,76.26
2022-11-05T21:40:39.532Z,75.90
2022-11-05T21:42:37.898Z,76.20
2022-11-05T21:44:36.225Z,76.54
2022-11-05T21:46:34.385Z,76.73
2022-11-05T21:48:33.121Z,77.48
2022-11-05T21:50:52.505Z,77.47
2022-11-05T21:53:22.773Z,78.06
2022-11-05T21:55:35.466Z,78.54
2022-11-05T21:57:52.338Z,78.75
2022-11-05T21:59:51.959Z,78.83
2022-11-05T22:01:50.654Z,78.81
2022-11-05T22:03:49.051Z,78.91
2022-11-05T22:05:48.908Z,78.94
2022-11-05T22:07:47.130Z,79.31
2022-11-05T22:09:45.846Z,79.15
2022-11-05T22:11:44.191Z,79.20
2022-11-05T22:13:42.721Z,78.90
2022-11-05T22:15:40.864Z,78.16
2022-11-05T22:17:43.858Z,78.25
2022-11-05T22:19:44.679Z,78.91
2022-11-05T22:21:44.608Z,78.79
2022-11-05T22:23:43.362Z,79.22
2022-11-05T22:25:42.219Z,79.60
2022-11-05T22:27:40.934Z,79.43
2022-11-05T22:29:39.397Z,79.00
2022-11-05T22:31:38.096Z,79.08
2022-11-05T22:33:36.513Z,78.96
2022-11-05T22:35:34.999Z,78.07
2022-11-05T22:37:35.312Z,78.14
2022-11-05T22:39:34.267Z,77.96
2022-11-05T22:41:33.029Z,77.62
2022-11-05T22:43:33.501Z,77.55
2022-11-05T22:45:31.710Z,77.84
2022-11-05T22:47:29.988Z,78.77
2022-11-05T22:49:28.402Z,79.17
2022-11-05T22:51:28.908Z,80.14
2022-11-05T22:53:28.763Z,80.52
2022-11-05T22:55:26.953Z,80.53
2022-11-05T22:57:25.326Z,80.21
2022-11-05T22:59:23.461Z,80.49
2022-11-05T23:01:22.961Z,81.15
2022-11-05T23:03:21.362Z,81.06
2022-11-05T23:05:19.528Z,81.13
2022-11-05T23:07:36.459Z,80.78
2022-11-05T23:09:54.042Z,81.00
2022-11-05T23:11:54.732Z,81.16
2022-11-05T23:13:52.905Z,80.90
2022-11-05T23:16:08.556Z,80.92
2022-11-05T23:18:20.723Z,80.66
2022-11-05T23:20:39.077Z,80.52
2022-11-05T23:22:54.659Z,80.29
2022-11-05T23:24:54.240Z,79.97
2022-11-05T23:26:52.358Z,79.99
2022-11-05T23:28:50.713Z,79.78
2022-11-05T23:31:07.828Z,79.86
2022-11-05T23:33:05.958Z,80.16
2022-11-05T23:35:05.534Z,80.77
2022-11-05T23:37:21.042Z,80.97
2022-11-05T23:39:18.342Z,81.04
2022-11-05T23:41:35.552Z,80.78
2022-11-05T23:43:51.277Z,80.62
2022-11-05T23:46:06.647Z,80.25
2022-11-05T23:48:17.972Z,80.11
2022-11-05T23:50:16.343Z,80.56
2022-11-05T23:52:14.387Z,81.24
2022-11-05T23:54:13.056Z,81.43
2022-11-05T23:56:13.941Z,81.45
2022-11-05T23:58:13.980Z,81.89
